Nearby METAR Reports

(scroll for additional cities)

 

KPSP - Palm Springs, California, USA
Distance from station: WNW 7mi, 11km
Updated: Sun, 19-Jan-2020 6:53am PST
Clear
Clear
 Wind from varies
Wind: varies 3 mph , 6 km/h
Temperature: 54°F , 12°C
Dew Point: 21°F , -6°C
Humidity: 28%
Barometer: 30.21 inHg , 1023 hPa
Clouds: Clear
Visibility: 10 miles , 16 km
2020/01/19 14:53 KPSP 191453Z VRB03KT 10SM CLR 12/M06 A3021 RMK AO2 SLP230 T01171061 53005 $
KTRM - Thermal/Palm Spg, California, USA
Distance from station: SE 16mi, 26km
Updated: Sun, 19-Jan-2020 6:52am PST
Clear
Clear
 Wind from NW
Wind: NW 7 mph , 11 km/h
Temperature: 46°F , 8°C
Wind Chill: 42°F , 6°C
Dew Point: 25°F , -4°C
Humidity: 43%
Barometer: 30.18 inHg , 1022 hPa
Clouds: Clear
Visibility: 10 miles , 16 km
2020/01/19 14:52 KTRM 191452Z AUTO 32006KT 10SM CLR 08/M04 A3018 RMK AO2 SLP218 T00831044 53005
 
KNXP - Twentynine Palms, California, USA
Distance from station: NNE 37mi, 60km
Updated: Sun, 19-Jan-2020 6:56am PST
Few Clouds
Few Clouds
 Wind from calm
Wind: Calm
Temperature: 37°F , 3°C
Dew Point: 18°F , -8°C
Humidity: 45%
Barometer: 30.34 inHg , 1027.4 hPa
Clouds: Few Clouds
Visibility: 7 miles , 11 km
Cloud details: Few Clouds 22000 ft
2020/01/19 14:56 KNXP 191456Z 00000KT 7SM FEW220 03/M08 A3034 RMK AO2 SLP263 FIRST T00281078 53005
KL35 - Big Bear City, California, USA
Distance from station: NW 43mi, 69km
Updated: Sun, 19-Jan-2020 7:35am PST

 Wind from calm
Wind: Calm
Temperature: 27°F , -3°C
Dew Point: 18°F , -8°C
Humidity: 69%
Barometer: 30.33 inHg , 1027.1 hPa
Visibility: 10 miles , 16 km
2020/01/19 15:35 KL35 191535Z AUTO 00000KT 10SM M03/M08 A3033 RMK AO2
 
KF70 - Murrieta/Temecula, California, USA
Distance from station: WSW 45mi, 73km
Updated: Sun, 19-Jan-2020 7:35am PST
Clear
Clear
 Wind from NNE
Wind: NNE 7 mph , 11 km/h
Temperature: 46°F , 8°C
Wind Chill: 42°F , 6°C
Dew Point: 25°F , -4°C
Humidity: 43%
Barometer: 30.14 inHg , 1020.7 hPa
Clouds: Clear
Visibility: 10 miles , 16 km
2020/01/19 15:35 KF70 191535Z AUTO 03006KT 10SM CLR 08/M04 A3014 RMK AO1
KRIV - Riverside/March, California, USA
Distance from station: W 51mi, 82km
Updated: Sun, 19-Jan-2020 6:58am PST
Clear
Clear
 Wind from NNW
Wind: NNW 7 mph , 11 km/h
Temperature: 48°F , 9°C
Wind Chill: 45°F , 7°C
Dew Point: 25°F , -4°C
Humidity: 40%
Barometer: 30.13 inHg , 1020.3 hPa
Clouds: Clear
Visibility: 10 miles , 16 km
2020/01/19 14:58 KRIV 191458Z AUTO 33006KT 10SM CLR 09/M04 A3013 RMK AO2 SLP201 T00941039 53000
 
KSBD - San Bernardino, California, USA
Distance from station: WNW 54mi, 86km
Updated: Sun, 19-Jan-2020 6:50am PST
Few Clouds
Few Clouds
 Wind from E
Wind: E 3 mph , 6 km/h
Temperature: 41°F , 5°C
Dew Point: 28°F , -2°C
Humidity: 61%
Barometer: 30.15 inHg , 1021 hPa
Clouds: Few Clouds
Visibility: 10 miles , 16 km
Cloud details: Few Clouds 15000 ft
2020/01/19 14:50 KSBD 191450Z 09003KT 10SM FEW150 05/M02 A3015
KRNM - Ramona, California, USA
Distance from station: SSW 60mi, 96km
Updated: Sun, 19-Jan-2020 6:53am PST
Clear
Clear
 Wind from ENE
Wind: ENE 7 mph , 11 km/h
Temperature: 57°F , 14°C
Dew Point: 19°F , -7°C
Humidity: 23%
Barometer: 30.09 inHg , 1019 hPa
Clouds: Clear
Visibility: 10 miles , 16 km
2020/01/19 14:53 KRNM 191453Z AUTO 06006KT 10SM CLR 14/M07 A3009 RMK AO2 SLP186 T01441072 53003
 
KRAL - Riverside, California, USA
Distance from station: W 62mi, 100km
Updated: Sun, 19-Jan-2020 6:53am PST
Clear
Clear
 Wind from ENE
Wind: ENE 7 mph , 11 km/h
Temperature: 59°F , 15°C
Dew Point: 18°F , -8°C
Humidity: 20%
Barometer: 30.12 inHg , 1020 hPa
Clouds: Clear
Visibility: 10 miles , 16 km
2020/01/19 14:53 KRAL 191453Z 06006KT 10SM CLR 15/M08 A3012 RMK AO2 SLP189 T01501078 55001
KOKB - Oceanside, California, USA
Distance from station: SW 68mi, 109km
Updated: Sun, 19-Jan-2020 6:52am PST
Clear
Clear
 Wind from calm
Wind: Calm
Temperature: 39°F , 4°C
Dew Point: 34°F , 1°C
Humidity: 81%
Barometer: 30.10 inHg , 1019.3 hPa
Clouds: Clear
Visibility: 10 miles , 16 km
2020/01/19 14:52 KOKB 191452Z AUTO 00000KT 10SM CLR 04/01 A3010 RMK AO2 SLP191 T00440006 53009
 
KONT - Ontario, California, USA
Distance from station: WNW 71mi, 114km
Updated: Sun, 19-Jan-2020 6:53am PST
Mostly Cloudy
Mostly Cloudy
 Wind from NNE
Wind: NNE 7 mph , 11 km/h
Temperature: 45°F , 7°C
Wind Chill: 41°F , 5°C
Dew Point: 30°F , -1°C
Humidity: 57%
Barometer: 30.11 inHg , 1019.6 hPa
Clouds: Mostly Cloudy
Visibility: 10 miles , 16 km
Cloud details: Mostly Cloudy 25000 ft
2020/01/19 14:53 KONT 191453Z 03006KT 10SM BKN250 07/M01 A3011 RMK AO2 SLP196 T00671011 53002
KNJK - El Centro Naf, California, USA
Distance from station: SSE 78mi, 126km
Updated: Sun, 19-Jan-2020 6:56am PST
Clear
Clear
 Wind from W
Wind: W 7 mph , 11 km/h
Temperature: 39°F , 4°C
Wind Chill: 34°F , 1°C
Dew Point: 19°F , -7°C
Humidity: 45%
Barometer: 30.20 inHg , 1022.7 hPa
Clouds: Clear
Visibility: 10 miles , 16 km
2020/01/19 14:56 KNJK 191456Z AUTO 27006KT 10SM CLR 04/M07 A3020 RMK AO2 SLP243 T00441072 53009 $
 
KSEE - San Diego/Santee, California, USA
Distance from station: SSW 74mi, 120km
Updated: Sun, 19-Jan-2020 7:15am PST
Clear
Clear
 Wind from calm
Wind: Calm
Temperature: 39°F , 4°C
Dew Point: 36°F , 2°C
Humidity: 87%
Barometer: 30.11 inHg , 1019.6 hPa
Clouds: Clear
Visibility: 10 miles , 16 km
2020/01/19 15:15 KSEE 191515Z AUTO 00000KT 10SM CLR 04/02 A3011 RMK AO2
KCNO - Chino, California, USA
Distance from station: W 72mi, 116km
Updated: Sun, 19-Jan-2020 6:53am PST
Few Clouds
Few Clouds
 Wind from NE
Wind: NE 5 mph , 7 km/h
Temperature: 43°F , 6°C
Wind Chill: 40°F , 4°C
Dew Point: 32°F , 0°C
Humidity: 66%
Barometer: 30.12 inHg , 1020 hPa
Clouds: Few Clouds
Visibility: 10 miles , 16 km
Cloud details: Few Clouds 25000 ft
2020/01/19 14:53 KCNO 191453Z 05004KT 10SM FEW250 06/00 A3012 RMK AO2 SLP199 T00610000 53000

Metar display script from Saratoga-Weather.org